sensor_id;sensor_type;location;lat;lon;timestamp;temperature;humidity
997;DHT22;487;50.126;8.698;2023-07-28T04:01:37;18.30;99.90
997;DHT22;487;50.126;8.698;2023-07-28T04:04:07;18.30;99.90
997;DHT22;487;50.126;8.698;2023-07-28T04:06:42;18.00;99.90
997;DHT22;487;50.126;8.698;2023-07-28T04:09:12;17.90;99.90
997;DHT22;487;50.126;8.698;2023-07-28T04:11:41;18.00;99.90
997;DHT22;487;50.126;8.698;2023-07-28T04:14:08;18.00;99.90
997;DHT22;487;50.126;8.698;2023-07-28T04:16:38;17.90;99.90
997;DHT22;487;50.126;8.698;2023-07-28T04:19:06;17.90;1.00
997;DHT22;487;50.126;8.698;2023-07-28T04:21:34;17.90;1.00
997;DHT22;487;50.126;8.698;2023-07-28T04:24:01;17.90;1.00
997;DHT22;487;50.126;8.698;2023-07-28T04:31:26;17.90;1.00
997;DHT22;487;50.126;8.698;2023-07-28T04:33:56;18.00;1.00
997;DHT22;487;50.126;8.698;2023-07-28T04:36:24;18.00;1.00
997;DHT22;487;50.126;8.698;2023-07-28T04:38:51;18.00;1.00
997;DHT22;487;50.126;8.698;2023-07-28T04:41:19;18.00;1.00
997;DHT22;487;50.126;8.698;2023-07-28T04:43:47;17.90;1.00
997;DHT22;487;50.126;8.698;2023-07-28T04:46:15;18.00;1.00
997;DHT22;487;50.126;8.698;2023-07-28T04:48:43;18.00;1.00
997;DHT22;487;50.126;8.698;2023-07-28T04:51:12;18.10;1.00
997;DHT22;487;50.126;8.698;2023-07-28T04:53:40;18.10;1.00
997;DHT22;487;50.126;8.698;2023-07-28T04:56:08;18.20;1.00
997;DHT22;487;50.126;8.698;2023-07-28T04:58:36;18.20;1.00
997;DHT22;487;50.126;8.698;2023-07-28T05:01:04;18.20;1.00
997;DHT22;487;50.126;8.698;2023-07-28T05:03:34;18.20;99.90
997;DHT22;487;50.126;8.698;2023-07-28T05:06:03;18.20;99.90
997;DHT22;487;50.126;8.698;2023-07-28T05:08:33;18.30;99.90
997;DHT22;487;50.126;8.698;2023-07-28T05:11:00;18.30;99.90
997;DHT22;487;50.126;8.698;2023-07-28T05:13:28;18.30;99.90
997;DHT22;487;50.126;8.698;2023-07-28T05:15:56;18.30;99.90
997;DHT22;487;50.126;8.698;2023-07-28T05:18:24;18.40;99.90
997;DHT22;487;50.126;8.698;2023-07-28T05:20:52;18.40;99.90
997;DHT22;487;50.126;8.698;2023-07-28T05:23:20;18.40;99.90
997;DHT22;487;50.126;8.698;2023-07-28T05:25:49;18.30;99.90
997;DHT22;487;50.126;8.698;2023-07-28T05:28:17;20.30;99.90
997;DHT22;487;50.126;8.698;2023-07-28T05:30:45;18.30;99.90
997;DHT22;487;50.126;8.698;2023-07-28T05:33:13;18.40;99.90
997;DHT22;487;50.126;8.698;2023-07-28T05:35:41;18.50;99.90
997;DHT22;487;50.126;8.698;2023-07-28T05:38:09;18.60;99.90
997;DHT22;487;50.126;8.698;2023-07-28T05:40:36;18.50;99.90
997;DHT22;487;50.126;8.698;2023-07-28T05:43:05;18.50;99.90
997;DHT22;487;50.126;8.698;2023-07-28T05:45:34;18.50;99.90
997;DHT22;487;50.126;8.698;2023-07-28T05:48:02;18.50;99.90
997;DHT22;487;50.126;8.698;2023-07-28T05:50:30;18.50;99.90
997;DHT22;487;50.126;8.698;2023-07-28T05:52:58;18.60;99.90
997;DHT22;487;50.126;8.698;2023-07-28T05:55:25;18.70;99.90
997;DHT22;487;50.126;8.698;2023-07-28T06:00:26;18.60;99.90
997;DHT22;487;50.126;8.698;2023-07-28T06:05:23;18.70;99.90
997;DHT22;487;50.126;8.698;2023-07-28T06:07:51;18.70;99.90
997;DHT22;487;50.126;8.698;2023-07-28T06:10:19;18.80;99.90
997;DHT22;487;50.126;8.698;2023-07-28T06:12:46;18.80;99.90
997;DHT22;487;50.126;8.698;2023-07-28T06:15:14;18.90;99.90
997;DHT22;487;50.126;8.698;2023-07-28T06:17:43;18.90;99.90
997;DHT22;487;50.126;8.698;2023-07-28T06:20:11;19.00;99.90
997;DHT22;487;50.126;8.698;2023-07-28T06:22:39;19.20;99.90
997;DHT22;487;50.126;8.698;2023-07-28T06:25:08;19.10;94.10
997;DHT22;487;50.126;8.698;2023-07-28T06:27:35;19.20;87.50
997;DHT22;487;50.126;8.698;2023-07-28T06:30:06;19.20;52.30
997;DHT22;487;50.126;8.698;2023-07-28T06:32:34;19.30;41.70
997;DHT22;487;50.126;8.698;2023-07-28T06:35:04;19.30;1.00
997;DHT22;487;50.126;8.698;2023-07-28T06:37:35;19.40;1.00
997;DHT22;487;50.126;8.698;2023-07-28T06:40:04;19.40;1.00
997;DHT22;487;50.126;8.698;2023-07-28T06:42:34;19.40;1.00
997;DHT22;487;50.126;8.698;2023-07-28T06:47:32;19.50;1.00
997;DHT22;487;50.126;8.698;2023-07-28T06:50:00;19.50;1.00
997;DHT22;487;50.126;8.698;2023-07-28T06:52:29;19.60;1.00
997;DHT22;487;50.126;8.698;2023-07-28T06:54:57;19.60;1.00
997;DHT22;487;50.126;8.698;2023-07-28T06:57:25;19.60;1.00
997;DHT22;487;50.126;8.698;2023-07-28T06:59:52;19.70;1.00
997;DHT22;487;50.126;8.698;2023-07-28T07:02:20;19.70;1.00
997;DHT22;487;50.126;8.698;2023-07-28T07:04:48;19.80;1.00
997;DHT22;487;50.126;8.698;2023-07-28T07:07:16;19.80;1.00
997;DHT22;487;50.126;8.698;2023-07-28T07:09:45;19.70;1.00
997;DHT22;487;50.126;8.698;2023-07-28T07:12:13;19.70;1.00
997;DHT22;487;50.126;8.698;2023-07-28T07:17:11;19.70;1.00
997;DHT22;487;50.126;8.698;2023-07-28T07:19:38;19.70;1.00
997;DHT22;487;50.126;8.698;2023-07-28T07:24:35;19.80;1.00
997;DHT22;487;50.126;8.698;2023-07-28T07:27:05;19.90;1.00
997;DHT22;487;50.126;8.698;2023-07-28T07:32:01;19.90;1.00
997;DHT22;487;50.126;8.698;2023-07-28T07:34:29;19.90;1.00
997;DHT22;487;50.126;8.698;2023-07-28T07:36:57;20.00;1.00
997;DHT22;487;50.126;8.698;2023-07-28T07:39:25;19.90;1.00
997;DHT22;487;50.126;8.698;2023-07-28T07:41:53;20.00;1.00
997;DHT22;487;50.126;8.698;2023-07-28T07:44:22;20.00;1.00
997;DHT22;487;50.126;8.698;2023-07-28T07:46:50;20.10;1.00
997;DHT22;487;50.126;8.698;2023-07-28T07:49:18;20.10;1.00
997;DHT22;487;50.126;8.698;2023-07-28T07:51:46;20.10;1.00
997;DHT22;487;50.126;8.698;2023-07-28T07:54:14;20.20;1.00
997;DHT22;487;50.126;8.698;2023-07-28T07:56:45;20.10;1.00
997;DHT22;487;50.126;8.698;2023-07-28T07:59:13;20.00;1.00
997;DHT22;487;50.126;8.698;2023-07-28T08:01:42;20.10;1.00
997;DHT22;487;50.126;8.698;2023-07-28T08:04:11;20.30;1.00
997;DHT22;487;50.126;8.698;2023-07-28T08:06:39;20.40;1.00
997;DHT22;487;50.126;8.698;2023-07-28T08:09:07;20.50;1.00
997;DHT22;487;50.126;8.698;2023-07-28T08:11:36;20.60;1.00
997;DHT22;487;50.126;8.698;2023-07-28T08:14:04;20.50;1.00
997;DHT22;487;50.126;8.698;2023-07-28T08:16:32;20.50;1.00
997;DHT22;487;50.126;8.698;2023-07-28T08:19:01;20.50;1.00
997;DHT22;487;50.126;8.698;2023-07-28T08:21:29;20.60;1.00
997;DHT22;487;50.126;8.698;2023-07-28T08:23:58;20.70;1.00
997;DHT22;487;50.126;8.698;2023-07-28T08:28:54;20.80;1.00
997;DHT22;487;50.126;8.698;2023-07-28T08:31:22;20.70;99.90
997;DHT22;487;50.126;8.698;2023-07-28T08:33:50;20.80;99.90
997;DHT22;487;50.126;8.698;2023-07-28T08:36:19;20.90;99.90
997;DHT22;487;50.126;8.698;2023-07-28T08:38:47;20.80;99.90
997;DHT22;487;50.126;8.698;2023-07-28T08:41:15;20.90;99.90
997;DHT22;487;50.126;8.698;2023-07-28T08:46:11;21.00;99.90
997;DHT22;487;50.126;8.698;2023-07-28T08:48:40;20.90;99.90
997;DHT22;487;50.126;8.698;2023-07-28T08:51:09;20.90;99.90
997;DHT22;487;50.126;8.698;2023-07-28T08:53:39;21.00;99.90
997;DHT22;487;50.126;8.698;2023-07-28T08:56:08;21.10;99.90
997;DHT22;487;50.126;8.698;2023-07-28T08:58:36;21.00;99.90
997;DHT22;487;50.126;8.698;2023-07-28T09:01:04;21.00;99.90
997;DHT22;487;50.126;8.698;2023-07-28T09:03:32;21.10;99.90
997;DHT22;487;50.126;8.698;2023-07-28T09:08:35;21.40;99.90
997;DHT22;487;50.126;8.698;2023-07-28T09:11:05;21.40;99.90
997;DHT22;487;50.126;8.698;2023-07-28T09:13:39;21.40;99.90
997;DHT22;487;50.126;8.698;2023-07-28T09:16:16;21.40;99.90
997;DHT22;487;50.126;8.698;2023-07-28T09:18:44;21.30;99.90
997;DHT22;487;50.126;8.698;2023-07-28T09:21:16;21.40;99.90
997;DHT22;487;50.126;8.698;2023-07-28T09:26:15;21.50;99.90
997;DHT22;487;50.126;8.698;2023-07-28T09:28:44;21.60;99.90
997;DHT22;487;50.126;8.698;2023-07-28T09:31:13;21.60;99.90
997;DHT22;487;50.126;8.698;2023-07-28T09:33:41;21.80;99.90
997;DHT22;487;50.126;8.698;2023-07-28T09:36:14;21.90;99.90
997;DHT22;487;50.126;8.698;2023-07-28T09:38:43;21.90;99.90
997;DHT22;487;50.126;8.698;2023-07-28T09:41:11;22.00;99.90
997;DHT22;487;50.126;8.698;2023-07-28T09:43:41;22.20;99.90
997;DHT22;487;50.126;8.698;2023-07-28T09:46:10;22.20;99.90
997;DHT22;487;50.126;8.698;2023-07-28T09:48:39;22.20;99.90
997;DHT22;487;50.126;8.698;2023-07-28T09:51:17;22.30;99.90
997;DHT22;487;50.126;8.698;2023-07-28T09:53:49;22.20;99.90
997;DHT22;487;50.126;8.698;2023-07-28T09:56:19;22.20;99.90
997;DHT22;487;50.126;8.698;2023-07-28T09:58:52;22.20;99.90
997;DHT22;487;50.126;8.698;2023-07-28T10:01:20;22.30;99.90
997;DHT22;487;50.126;8.698;2023-07-28T10:03:50;22.20;99.90
997;DHT22;487;50.126;8.698;2023-07-28T10:06:19;22.30;99.90
997;DHT22;487;50.126;8.698;2023-07-28T10:08:49;22.20;99.90
997;DHT22;487;50.126;8.698;2023-07-28T10:11:18;22.30;99.90
997;DHT22;487;50.126;8.698;2023-07-28T10:13:46;22.40;99.90
997;DHT22;487;50.126;8.698;2023-07-28T10:18:52;22.70;99.90
997;DHT22;487;50.126;8.698;2023-07-28T10:23:54;22.90;99.90
997;DHT22;487;50.126;8.698;2023-07-28T10:26:35;22.90;99.90
997;DHT22;487;50.126;8.698;2023-07-28T10:29:11;22.90;99.90
997;DHT22;487;50.126;8.698;2023-07-28T10:31:51;23.00;99.90
997;DHT22;487;50.126;8.698;2023-07-28T10:34:21;22.90;99.90
997;DHT22;487;50.126;8.698;2023-07-28T10:36:57;22.90;99.90
997;DHT22;487;50.126;8.698;2023-07-28T10:42:03;23.00;99.90
997;DHT22;487;50.126;8.698;2023-07-28T10:44:31;23.00;99.90
997;DHT22;487;50.126;8.698;2023-07-28T10:47:01;23.00;99.90
997;DHT22;487;50.126;8.698;2023-07-28T10:49:29;23.10;99.90
997;DHT22;487;50.126;8.698;2023-07-28T10:51:58;23.10;99.90
997;DHT22;487;50.126;8.698;2023-07-28T10:54:26;23.10;99.90
997;DHT22;487;50.126;8.698;2023-07-28T11:04:20;23.40;99.90
997;DHT22;487;50.126;8.698;2023-07-28T11:06:50;26.10;99.90
997;DHT22;487;50.126;8.698;2023-07-28T11:09:22;23.20;99.90
997;DHT22;487;50.126;8.698;2023-07-28T11:11:51;23.10;99.90
997;DHT22;487;50.126;8.698;2023-07-28T11:14:20;23.10;99.90
997;DHT22;487;50.126;8.698;2023-07-28T11:16:48;23.10;99.90
997;DHT22;487;50.126;8.698;2023-07-28T11:21:54;23.20;99.90
997;DHT22;487;50.126;8.698;2023-07-28T11:24:24;23.20;99.90
997;DHT22;487;50.126;8.698;2023-07-28T11:26:53;23.30;99.90
997;DHT22;487;50.126;8.698;2023-07-28T11:34:17;23.60;99.90
997;DHT22;487;50.126;8.698;2023-07-28T11:36:45;23.50;99.90
997;DHT22;487;50.126;8.698;2023-07-28T11:39:16;23.50;99.90
997;DHT22;487;50.126;8.698;2023-07-28T11:41:44;23.40;99.90
997;DHT22;487;50.126;8.698;2023-07-28T11:44:15;23.40;99.90
997;DHT22;487;50.126;8.698;2023-07-28T11:49:13;23.30;99.90
997;DHT22;487;50.126;8.698;2023-07-28T11:51:44;23.30;99.90
997;DHT22;487;50.126;8.698;2023-07-28T11:54:15;23.30;99.90
997;DHT22;487;50.126;8.698;2023-07-28T11:56:44;23.20;99.90
997;DHT22;487;50.126;8.698;2023-07-28T11:59:15;23.30;99.90
997;DHT22;487;50.126;8.698;2023-07-28T12:01:53;23.40;99.90
997;DHT22;487;50.126;8.698;2023-07-28T12:04:26;23.40;99.90
997;DHT22;487;50.126;8.698;2023-07-28T12:07:05;23.40;99.90
997;DHT22;487;50.126;8.698;2023-07-28T12:09:48;23.40;99.90
997;DHT22;487;50.126;8.698;2023-07-28T12:12:31;23.30;99.90
997;DHT22;487;50.126;8.698;2023-07-28T12:15:19;23.20;99.90
997;DHT22;487;50.126;8.698;2023-07-28T12:18:07;23.20;99.90
997;DHT22;487;50.126;8.698;2023-07-28T12:20:40;23.10;99.90
997;DHT22;487;50.126;8.698;2023-07-28T12:23:08;23.00;99.90
997;DHT22;487;50.126;8.698;2023-07-28T12:25:40;22.80;99.90
997;DHT22;487;50.126;8.698;2023-07-28T12:28:08;22.80;99.90
997;DHT22;487;50.126;8.698;2023-07-28T12:35:47;22.40;99.90
997;DHT22;487;50.126;8.698;2023-07-28T12:38:17;22.40;99.90
997;DHT22;487;50.126;8.698;2023-07-28T12:48:25;22.80;99.90
997;DHT22;487;50.126;8.698;2023-07-28T12:50:53;22.80;99.90
997;DHT22;487;50.126;8.698;2023-07-28T12:53:24;22.90;99.90
997;DHT22;487;50.126;8.698;2023-07-28T12:55:54;22.90;99.90
997;DHT22;487;50.126;8.698;2023-07-28T12:58:25;22.90;99.90
997;DHT22;487;50.126;8.698;2023-07-28T13:03:29;22.90;99.90
997;DHT22;487;50.126;8.698;2023-07-28T13:10:58;23.00;99.90
997;DHT22;487;50.126;8.698;2023-07-28T13:13:29;23.10;99.90
997;DHT22;487;50.126;8.698;2023-07-28T13:25:52;23.20;99.90
997;DHT22;487;50.126;8.698;2023-07-28T13:28:22;23.20;99.90
997;DHT22;487;50.126;8.698;2023-07-28T13:30:50;23.10;99.90
997;DHT22;487;50.126;8.698;2023-07-28T13:33:18;23.10;99.90
997;DHT22;487;50.126;8.698;2023-07-28T13:38:14;22.70;99.90
997;DHT22;487;50.126;8.698;2023-07-28T13:40:42;22.70;99.90
997;DHT22;487;50.126;8.698;2023-07-28T13:43:10;22.70;99.90
997;DHT22;487;50.126;8.698;2023-07-28T13:45:44;22.70;99.90
997;DHT22;487;50.126;8.698;2023-07-28T13:48:12;22.60;99.90
997;DHT22;487;50.126;8.698;2023-07-28T13:50:43;22.50;99.90
997;DHT22;487;50.126;8.698;2023-07-28T13:55:52;22.50;99.90
997;DHT22;487;50.126;8.698;2023-07-28T13:58:24;22.50;99.90
997;DHT22;487;50.126;8.698;2023-07-28T14:00:53;22.40;99.90
997;DHT22;487;50.126;8.698;2023-07-28T14:03:22;22.50;99.90
997;DHT22;487;50.126;8.698;2023-07-28T14:05:50;22.60;99.90
997;DHT22;487;50.126;8.698;2023-07-28T14:08:18;22.60;99.90
997;DHT22;487;50.126;8.698;2023-07-28T14:10:46;22.40;99.90
997;DHT22;487;50.126;8.698;2023-07-28T14:13:14;22.20;99.90
997;DHT22;487;50.126;8.698;2023-07-28T14:18:13;22.20;99.90
997;DHT22;487;50.126;8.698;2023-07-28T14:20:41;22.30;99.90
997;DHT22;487;50.126;8.698;2023-07-28T14:23:21;22.30;99.90
997;DHT22;487;50.126;8.698;2023-07-28T14:30:46;22.50;99.90
997;DHT22;487;50.126;8.698;2023-07-28T14:33:17;22.40;99.90
997;DHT22;487;50.126;8.698;2023-07-28T14:35:47;22.40;99.90
997;DHT22;487;50.126;8.698;2023-07-28T14:38:15;22.40;99.90
997;DHT22;487;50.126;8.698;2023-07-28T14:40:43;22.30;99.90
997;DHT22;487;50.126;8.698;2023-07-28T14:43:16;22.40;99.90
997;DHT22;487;50.126;8.698;2023-07-28T14:50:41;22.70;99.90
997;DHT22;487;50.126;8.698;2023-07-28T14:53:32;22.20;99.90
997;DHT22;487;50.126;8.698;2023-07-28T14:56:02;22.00;99.90
997;DHT22;487;50.126;8.698;2023-07-28T14:58:31;22.00;99.90
997;DHT22;487;50.126;8.698;2023-07-28T15:00:59;21.80;99.90
997;DHT22;487;50.126;8.698;2023-07-28T15:03:28;21.70;1.00
997;DHT22;487;50.126;8.698;2023-07-28T15:05:59;21.50;1.00
997;DHT22;487;50.126;8.698;2023-07-28T15:08:28;21.40;1.00
997;DHT22;487;50.126;8.698;2023-07-28T15:10:56;21.40;1.00
997;DHT22;487;50.126;8.698;2023-07-28T15:20:50;21.80;1.00
997;DHT22;487;50.126;8.698;2023-07-28T15:25:48;22.00;1.00
997;DHT22;487;50.126;8.698;2023-07-28T15:28:19;22.20;1.00
997;DHT22;487;50.126;8.698;2023-07-28T15:30:47;22.30;1.00
997;DHT22;487;50.126;8.698;2023-07-28T15:39:53;22.60;1.00
997;DHT22;487;50.126;8.698;2023-07-28T15:42:21;22.60;1.00
997;DHT22;487;50.126;8.698;2023-07-28T15:44:49;22.50;99.90
997;DHT22;487;50.126;8.698;2023-07-28T15:49:45;22.30;99.90
997;DHT22;487;50.126;8.698;2023-07-28T15:57:11;22.20;99.90
997;DHT22;487;50.126;8.698;2023-07-28T16:02:08;22.40;99.90
997;DHT22;487;50.126;8.698;2023-07-28T16:07:05;22.40;99.90
997;DHT22;487;50.126;8.698;2023-07-28T16:14:31;22.80;99.90
997;DHT22;487;50.126;8.698;2023-07-28T16:21:57;23.10;99.90
997;DHT22;487;50.126;8.698;2023-07-28T16:24:26;22.80;99.90
997;DHT22;487;50.126;8.698;2023-07-28T16:26:54;22.80;99.90
997;DHT22;487;50.126;8.698;2023-07-28T16:31:52;22.70;99.90
997;DHT22;487;50.126;8.698;2023-07-28T16:36:48;22.90;99.90
997;DHT22;487;50.126;8.698;2023-07-28T16:39:16;22.90;99.90
997;DHT22;487;50.126;8.698;2023-07-28T16:41:45;22.70;99.90
997;DHT22;487;50.126;8.698;2023-07-28T16:44:15;22.60;99.90
997;DHT22;487;50.126;8.698;2023-07-28T16:46:45;22.60;99.90
997;DHT22;487;50.126;8.698;2023-07-28T16:49:14;22.70;99.90
997;DHT22;487;50.126;8.698;2023-07-28T16:59:08;22.40;99.90
997;DHT22;487;50.126;8.698;2023-07-28T17:04:05;22.50;99.90
997;DHT22;487;50.126;8.698;2023-07-28T17:06:34;22.50;99.90
997;DHT22;487;50.126;8.698;2023-07-28T17:14:00;22.50;99.90
997;DHT22;487;50.126;8.698;2023-07-28T17:16:28;22.60;99.90
997;DHT22;487;50.126;8.698;2023-07-28T17:23:54;22.50;99.90
997;DHT22;487;50.126;8.698;2023-07-28T17:28:50;22.40;99.90
997;DHT22;487;50.126;8.698;2023-07-28T17:33:46;22.50;99.90
997;DHT22;487;50.126;8.698;2023-07-28T17:36:14;22.70;99.90
997;DHT22;487;50.126;8.698;2023-07-28T17:38:42;22.90;99.90
997;DHT22;487;50.126;8.698;2023-07-28T17:43:42;23.10;99.90
997;DHT22;487;50.126;8.698;2023-07-28T17:46:10;23.10;99.90
997;DHT22;487;50.126;8.698;2023-07-28T17:48:38;23.20;99.90
997;DHT22;487;50.126;8.698;2023-07-28T17:51:06;23.20;99.90
997;DHT22;487;50.126;8.698;2023-07-28T17:56:03;23.60;99.90
997;DHT22;487;50.126;8.698;2023-07-28T17:58:33;23.70;99.90
997;DHT22;487;50.126;8.698;2023-07-28T18:01:01;23.90;99.90
997;DHT22;487;50.126;8.698;2023-07-28T18:08:27;23.20;99.90
997;DHT22;487;50.126;8.698;2023-07-28T18:10:56;23.00;99.90
997;DHT22;487;50.126;8.698;2023-07-28T18:13:24;22.70;99.90
997;DHT22;487;50.126;8.698;2023-07-28T18:15:53;22.50;99.90
997;DHT22;487;50.126;8.698;2023-07-28T18:18:21;22.40;99.90
997;DHT22;487;50.126;8.698;2023-07-28T18:20:49;22.40;99.90
997;DHT22;487;50.126;8.698;2023-07-28T18:25:45;22.00;99.90
997;DHT22;487;50.126;8.698;2023-07-28T18:33:11;21.80;99.90
997;DHT22;487;50.126;8.698;2023-07-28T18:35:39;21.70;99.90
997;DHT22;487;50.126;8.698;2023-07-28T18:43:04;21.60;99.90
997;DHT22;487;50.126;8.698;2023-07-28T18:48:00;21.20;99.90
997;DHT22;487;50.126;8.698;2023-07-28T18:50:29;21.20;99.90
997;DHT22;487;50.126;8.698;2023-07-28T18:52:57;21.20;99.90
997;DHT22;487;50.126;8.698;2023-07-28T18:55:25;21.20;99.90
997;DHT22;487;50.126;8.698;2023-07-28T18:57:53;21.10;99.90
997;DHT22;487;50.126;8.698;2023-07-28T19:00:21;21.10;1.00
997;DHT22;487;50.126;8.698;2023-07-28T19:05:22;20.80;1.00
997;DHT22;487;50.126;8.698;2023-07-28T19:07:52;20.90;1.00
997;DHT22;487;50.126;8.698;2023-07-28T19:10:19;21.00;1.00
997;DHT22;487;50.126;8.698;2023-07-28T19:17:57;20.90;1.00
997;DHT22;487;50.126;8.698;2023-07-28T19:20:25;20.90;1.00
997;DHT22;487;50.126;8.698;2023-07-28T19:22:54;20.80;1.00
997;DHT22;487;50.126;8.698;2023-07-28T19:25:23;20.70;1.00
997;DHT22;487;50.126;8.698;2023-07-28T19:37:46;21.00;1.00
997;DHT22;487;50.126;8.698;2023-07-28T19:40:16;21.00;1.00
997;DHT22;487;50.126;8.698;2023-07-28T19:42:44;21.00;1.00
997;DHT22;487;50.126;8.698;2023-07-28T19:45:12;21.10;1.00
997;DHT22;487;50.126;8.698;2023-07-28T19:47:40;21.00;1.00
997;DHT22;487;50.126;8.698;2023-07-28T19:50:08;20.90;1.00
997;DHT22;487;50.126;8.698;2023-07-28T19:52:41;20.90;1.00
997;DHT22;487;50.126;8.698;2023-07-28T19:55:09;20.90;1.00
997;DHT22;487;50.126;8.698;2023-07-28T19:57:39;20.90;1.00
997;DHT22;487;50.126;8.698;2023-07-28T20:00:07;20.90;1.00
997;DHT22;487;50.126;8.698;2023-07-28T20:02:36;20.90;1.00
997;DHT22;487;50.126;8.698;2023-07-28T20:05:05;20.90;1.00
997;DHT22;487;50.126;8.698;2023-07-28T20:07:33;20.70;1.00
997;DHT22;487;50.126;8.698;2023-07-28T20:10:01;20.70;1.00
997;DHT22;487;50.126;8.698;2023-07-28T20:12:29;20.60;1.00
997;DHT22;487;50.126;8.698;2023-07-28T20:15:00;20.60;1.00
997;DHT22;487;50.126;8.698;2023-07-28T20:19:56;20.70;1.00
997;DHT22;487;50.126;8.698;2023-07-28T20:22:24;20.70;1.00
997;DHT22;487;50.126;8.698;2023-07-28T20:24:52;20.70;1.00
997;DHT22;487;50.126;8.698;2023-07-28T20:27:20;20.70;1.00
997;DHT22;487;50.126;8.698;2023-07-28T20:29:48;20.70;1.00
997;DHT22;487;50.126;8.698;2023-07-28T20:32:17;20.80;1.00
997;DHT22;487;50.126;8.698;2023-07-28T20:34:45;20.80;1.00
997;DHT22;487;50.126;8.698;2023-07-28T20:39:41;20.90;1.00
997;DHT22;487;50.126;8.698;2023-07-28T20:42:09;20.90;1.00
997;DHT22;487;50.126;8.698;2023-07-28T20:44:37;20.90;1.00
997;DHT22;487;50.126;8.698;2023-07-28T20:47:05;20.80;1.00
997;DHT22;487;50.126;8.698;2023-07-28T20:49:35;20.80;1.00
997;DHT22;487;50.126;8.698;2023-07-28T20:54:32;20.80;1.00
997;DHT22;487;50.126;8.698;2023-07-28T20:57:00;20.90;1.00
997;DHT22;487;50.126;8.698;2023-07-28T20:59:28;20.90;1.00
997;DHT22;487;50.126;8.698;2023-07-28T21:04:25;21.00;1.00
997;DHT22;487;50.126;8.698;2023-07-28T21:06:54;21.00;1.00
997;DHT22;487;50.126;8.698;2023-07-28T21:09:22;21.00;1.00
997;DHT22;487;50.126;8.698;2023-07-28T21:16:47;21.00;1.00
997;DHT22;487;50.126;8.698;2023-07-28T21:19:15;21.10;1.00
997;DHT22;487;50.126;8.698;2023-07-28T21:21:43;21.10;1.00
997;DHT22;487;50.126;8.698;2023-07-28T21:24:12;21.10;1.00
997;DHT22;487;50.126;8.698;2023-07-28T21:26:40;21.10;1.00
997;DHT22;487;50.126;8.698;2023-07-28T21:31:36;21.20;1.00
997;DHT22;487;50.126;8.698;2023-07-28T21:34:04;21.10;1.00
997;DHT22;487;50.126;8.698;2023-07-28T21:36:34;21.10;1.00
997;DHT22;487;50.126;8.698;2023-07-28T21:39:03;21.10;1.00
997;DHT22;487;50.126;8.698;2023-07-28T21:41:32;21.10;1.00
997;DHT22;487;50.126;8.698;2023-07-28T21:44:00;21.00;1.00
997;DHT22;487;50.126;8.698;2023-07-28T21:46:28;21.00;1.00
997;DHT22;487;50.126;8.698;2023-07-28T21:51:24;21.00;1.00
997;DHT22;487;50.126;8.698;2023-07-28T21:53:52;21.00;1.00
997;DHT22;487;50.126;8.698;2023-07-28T21:56:21;21.00;1.00
997;DHT22;487;50.126;8.698;2023-07-28T22:01:18;20.90;1.00
997;DHT22;487;50.126;8.698;2023-07-28T22:03:46;20.80;1.00
997;DHT22;487;50.126;8.698;2023-07-28T22:08:43;20.30;1.00
997;DHT22;487;50.126;8.698;2023-07-28T22:11:11;20.30;1.00
997;DHT22;487;50.126;8.698;2023-07-28T22:13:39;20.20;1.00
997;DHT22;487;50.126;8.698;2023-07-28T22:16:09;20.20;1.00
997;DHT22;487;50.126;8.698;2023-07-28T22:21:05;19.90;1.00
997;DHT22;487;50.126;8.698;2023-07-28T22:23:32;19.90;1.00
997;DHT22;487;50.126;8.698;2023-07-28T22:26:00;19.90;1.00
997;DHT22;487;50.126;8.698;2023-07-28T22:28:28;19.90;1.00
997;DHT22;487;50.126;8.698;2023-07-28T22:30:56;20.00;1.00
997;DHT22;487;50.126;8.698;2023-07-28T22:33:25;20.10;1.00
997;DHT22;487;50.126;8.698;2023-07-28T22:35:53;20.10;1.00
997;DHT22;487;50.126;8.698;2023-07-28T22:38:22;20.00;1.00
997;DHT22;487;50.126;8.698;2023-07-28T22:40:50;20.10;1.00
997;DHT22;487;50.126;8.698;2023-07-28T22:43:18;20.00;1.00
997;DHT22;487;50.126;8.698;2023-07-28T22:45:46;19.90;1.00
997;DHT22;487;50.126;8.698;2023-07-28T22:48:14;19.80;1.00
997;DHT22;487;50.126;8.698;2023-07-28T22:50:44;19.80;1.00
997;DHT22;487;50.126;8.698;2023-07-28T22:53:12;19.80;1.00
997;DHT22;487;50.126;8.698;2023-07-28T22:58:08;19.80;1.00
997;DHT22;487;50.126;8.698;2023-07-28T23:00:36;19.80;1.00
997;DHT22;487;50.126;8.698;2023-07-28T23:03:04;19.80;1.00
997;DHT22;487;50.126;8.698;2023-07-28T23:05:32;19.70;1.00
997;DHT22;487;50.126;8.698;2023-07-28T23:08:02;19.80;1.00
997;DHT22;487;50.126;8.698;2023-07-28T23:10:30;19.80;1.00
997;DHT22;487;50.126;8.698;2023-07-28T23:12:58;19.80;1.00
997;DHT22;487;50.126;8.698;2023-07-28T23:15:26;19.80;1.00
997;DHT22;487;50.126;8.698;2023-07-28T23:17:54;19.80;1.00
997;DHT22;487;50.126;8.698;2023-07-28T23:20:22;19.80;1.00
997;DHT22;487;50.126;8.698;2023-07-28T23:22:50;19.90;1.00
997;DHT22;487;50.126;8.698;2023-07-28T23:25:19;19.90;1.00
997;DHT22;487;50.126;8.698;2023-07-28T23:27:47;19.90;1.00
997;DHT22;487;50.126;8.698;2023-07-28T23:30:15;19.90;1.00
997;DHT22;487;50.126;8.698;2023-07-28T23:32:43;19.90;1.00
997;DHT22;487;50.126;8.698;2023-07-28T23:35:11;19.90;1.00
997;DHT22;487;50.126;8.698;2023-07-28T23:37:39;20.00;1.00
997;DHT22;487;50.126;8.698;2023-07-28T23:40:07;19.90;1.00
997;DHT22;487;50.126;8.698;2023-07-28T23:42:37;19.90;1.00
997;DHT22;487;50.126;8.698;2023-07-28T23:45:06;19.80;1.00
997;DHT22;487;50.126;8.698;2023-07-28T23:47:35;19.70;1.00
997;DHT22;487;50.126;8.698;2023-07-28T23:50:03;19.70;1.00
997;DHT22;487;50.126;8.698;2023-07-28T23:52:31;19.70;1.00
997;DHT22;487;50.126;8.698;2023-07-28T23:54:58;19.70;1.00
997;DHT22;487;50.126;8.698;2023-07-28T23:57:26;19.60;1.00
997;DHT22;487;50.126;8.698;2023-07-28T23:59:55;19.60;1.00
